Impacts METAR Board
IDs:

KT35 - Cameron Muni, TX, US

Updated at: 0100 UTC 01 Nov 2020
Potential Impact None Slight Moderate High
Time 31/13Z 31/14Z 31/15Z 31/16Z 31/17Z 31/18Z 31/19Z 31/20Z 31/21Z 31/22Z 31/23Z 01/00Z 01/01Z
Temp40 46 52 59 65 69 71 73 74 74 73 65 64
Dewpt39 43 46 46 45 43 42 41 41 41 43 46 45
Altim30.23 30.24 30.26 30.26 30.24 30.21 30.17 30.13 30.11 30.10 30.10 30.11 30.13
VIS10 10 10 10 10 10 10 10 10 10 10 10 10
CIG-- -- -- -- -- -- -- -- -- -- -- -- --
CoverCLRCLRCLRCLRCLRCLRCLRCLRCLRCLRCLRCLRCLR
FltCatVFRVFRVFRVFRVFRVFRVFRVFRVFRVFRVFRVFRVFR
WX--------------------------
WDir0001502201601901801401601601100
WSpd0 0 0 4 5 5 6 7 6 6 3 3 0
WGst-- -- -- -- -- -- -- -- -- -- -- -- --
Raw hourly METARs
KT35 311255Z AUTO 00000KT 10SM CLR 04/04 A3023 RMK AO2 T00420037 TSNO
KT35 311355Z AUTO 00000KT 10SM CLR 08/06 A3024 RMK AO2 T00760061 TSNO
KT35 311455Z AUTO 00000KT 10SM CLR 11/08 A3026 RMK AO2 T01130076 TSNO
KT35 311555Z AUTO 15004KT 10SM CLR 15/08 A3026 RMK AO2 T01500080 TSNO
KT35 311655Z AUTO 22005KT 10SM CLR 18/07 A3024 RMK AO2 T01810073 TSNO
KT35 311755Z AUTO 16005KT 10SM CLR 21/06 A3021 RMK AO2 T02050061 10206 20038 TSNO
KT35 311855Z AUTO 19006KT 10SM CLR 22/06 A3017 RMK AO2 T02180057 TSNO
KT35 311955Z AUTO 18007KT 10SM CLR 23/05 A3013 RMK AO2 T02270052 TSNO
KT35 312055Z AUTO 14006KT 10SM CLR 23/05 A3011 RMK AO2 T02330051 TSNO
KT35 312155Z AUTO 16006KT 10SM CLR 24/05 A3010 RMK AO2 T02360052 TSNO
KT35 312255Z AUTO 16003KT 10SM CLR 23/06 A3010 RMK AO2 T02300061 TSNO
KT35 312355Z AUTO 11003KT 10SM CLR 18/08 A3011 RMK AO2 T01840079 10239 20184 TSNO
KT35 010055Z AUTO 00000KT 10SM CLR 18/07 A3013 RMK AO2 T01750071 TSNO